« Back
NWS Peachtree City, Ga » Text Product » AHN Terminal Aerodrome Forecast


Printer-friendly Version
Current Version              Previous Versions:   1  2  3  4  5  6  7  8  9  

Terminal Aerodrome Forecast

714
FTUS42 KFFC 012340
TAFAHN
TAF
KAHN 012340Z 0200/0224 31007KT P6SM FEW100
     FM021400 28005KT P6SM SKC
     FM021600 26008KT P6SM SCT060
     FM022200 28006KT P6SM FEW250=

USA.gov is the U.S. government's official web portal to all federal, state and local government web resources and services.